createdAt,value
2019-04-16T00:02:25.633Z,8.37
2019-04-16T00:05:12.443Z,7.07
2019-04-16T00:08:09.768Z,7.60
2019-04-16T00:10:52.383Z,6.70
2019-04-16T00:13:31.312Z,7.78
2019-04-16T00:16:01.568Z,7.90
2019-04-16T00:18:31.669Z,7.53
2019-04-16T00:21:20.777Z,7.67
2019-04-16T00:24:19.500Z,7.57
2019-04-16T00:26:51.980Z,6.77
2019-04-16T00:29:22.091Z,7.67
2019-04-16T00:32:07.838Z,7.63
2019-04-16T00:34:36.043Z,8.57
2019-04-16T00:37:06.249Z,7.80
2019-04-16T00:39:36.345Z,7.60
2019-04-16T00:42:06.507Z,7.40
2019-04-16T00:44:36.656Z,7.97
2019-04-16T00:47:06.885Z,7.83
2019-04-16T00:49:38.095Z,7.10
2019-04-16T00:52:08.331Z,7.50
2019-04-16T00:54:39.284Z,7.93
2019-04-16T00:57:12.559Z,7.70
2019-04-16T00:59:42.150Z,8.30
2019-04-16T01:02:12.247Z,7.90
2019-04-16T01:04:42.322Z,7.70
2019-04-16T01:07:14.383Z,6.93
2019-04-16T01:09:44.462Z,7.40
2019-04-16T01:12:14.658Z,7.87
2019-04-16T01:14:44.760Z,8.13
2019-04-16T01:17:15.070Z,7.67
2019-04-16T01:19:45.242Z,6.97
2019-04-16T01:22:16.020Z,7.13
2019-04-16T01:24:51.524Z,8.43
2019-04-16T01:27:20.252Z,8.83
2019-04-16T01:29:50.222Z,7.73
2019-04-16T01:32:36.925Z,7.30
2019-04-16T01:35:29.000Z,7.53
2019-04-16T01:38:16.355Z,7.77
2019-04-16T01:40:52.454Z,6.50
2019-04-16T01:43:25.522Z,7.50
2019-04-16T01:45:54.549Z,8.27
2019-04-16T01:48:24.645Z,7.33
2019-04-16T01:50:54.823Z,7.30
2019-04-16T01:53:25.009Z,7.50
2019-04-16T01:55:57.061Z,8.27
2019-04-16T01:58:26.984Z,6.73
2019-04-16T02:00:57.182Z,7.63
2019-04-16T02:03:27.342Z,7.13
2019-04-16T02:05:57.520Z,7.33
2019-04-16T02:08:28.263Z,7.27
2019-04-16T02:10:59.621Z,7.97
2019-04-16T02:13:29.663Z,6.33
2019-04-16T02:16:00.000Z,7.10
2019-04-16T02:18:30.374Z,7.17
2019-04-16T02:21:00.545Z,6.60
2019-04-16T02:23:30.720Z,7.33
2019-04-16T02:26:00.811Z,6.93
2019-04-16T02:28:30.981Z,7.60
2019-04-16T02:31:01.172Z,7.77
2019-04-16T02:33:31.087Z,7.70
2019-04-16T02:36:01.179Z,7.33
2019-04-16T02:38:31.250Z,8.40
2019-04-16T02:41:02.325Z,7.07
2019-04-16T02:43:39.717Z,6.37
2019-04-16T02:46:04.348Z,5.93
2019-04-16T02:48:34.416Z,7.33
2019-04-16T02:51:32.348Z,7.13
2019-04-16T02:54:11.946Z,7.13
2019-04-16T02:57:13.191Z,7.10
2019-04-16T02:59:47.351Z,6.20
2019-04-16T03:02:40.535Z,7.20
2019-04-16T03:05:17.550Z,5.87
2019-04-16T03:07:47.717Z,6.35
2019-04-16T03:10:17.821Z,6.63
2019-04-16T03:12:51.797Z,6.80
2019-04-16T03:15:39.015Z,6.93
2019-04-16T03:18:11.718Z,6.33
2019-04-16T03:20:41.328Z,6.10
2019-04-16T03:23:11.475Z,6.40
2019-04-16T03:25:44.356Z,6.70
2019-04-16T03:28:13.549Z,6.70
2019-04-16T03:30:43.651Z,6.40
2019-04-16T03:33:15.131Z,6.37
2019-04-16T03:35:45.532Z,6.73
2019-04-16T03:38:15.561Z,5.93
2019-04-16T03:40:45.697Z,6.60
2019-04-16T03:43:15.854Z,6.13
2019-04-16T03:45:45.924Z,7.10
2019-04-16T03:48:15.939Z,6.30
2019-04-16T03:50:45.942Z,5.93
2019-04-16T03:53:17.879Z,6.33
2019-04-16T03:55:48.122Z,5.70
2019-04-16T03:58:18.194Z,5.83
2019-04-16T04:00:48.383Z,6.27
2019-04-16T04:03:18.691Z,14.80
2019-04-16T04:05:55.743Z,13.17
2019-04-16T04:08:26.237Z,7.17
2019-04-16T04:10:56.323Z,6.30
2019-04-16T04:13:26.339Z,6.47
2019-04-16T04:15:58.552Z,6.53
2019-04-16T04:18:28.616Z,5.93
2019-04-16T04:20:58.693Z,6.43
2019-04-16T04:23:29.437Z,6.57
2019-04-16T04:25:59.553Z,5.70
2019-04-16T04:28:29.492Z,5.50
2019-04-16T04:31:00.901Z,5.70
2019-04-16T04:33:41.430Z,6.03
2019-04-16T04:36:10.906Z,6.58
2019-04-16T04:38:41.315Z,6.33
2019-04-16T04:41:11.466Z,6.70
2019-04-16T04:43:41.477Z,5.50
2019-04-16T04:46:14.685Z,6.40
2019-04-16T04:48:43.451Z,5.77
2019-04-16T04:51:13.579Z,5.70
2019-04-16T04:53:43.730Z,6.20
2019-04-16T04:56:13.850Z,5.93
2019-04-16T04:58:43.781Z,6.40
2019-04-16T05:01:14.375Z,5.85
2019-04-16T05:04:03.575Z,6.50
2019-04-16T05:06:36.083Z,5.85
2019-04-16T05:09:08.033Z,5.80
2019-04-16T05:11:38.108Z,5.20
2019-04-16T05:14:08.101Z,6.00
2019-04-16T05:16:38.238Z,5.87
2019-04-16T05:19:08.155Z,5.40
2019-04-16T05:21:38.235Z,5.47
2019-04-16T05:24:08.234Z,6.67
2019-04-16T05:26:38.163Z,5.33
2019-04-16T05:29:16.573Z,6.40
2019-04-16T05:31:43.976Z,5.50
2019-04-16T05:34:17.162Z,6.10
2019-04-16T05:36:47.722Z,5.53
2019-04-16T05:39:17.513Z,6.30
2019-04-16T05:41:47.509Z,5.50
2019-04-16T05:44:17.511Z,6.67
2019-04-16T05:46:47.430Z,6.37
2019-04-16T05:49:17.519Z,6.47
2019-04-16T05:51:47.430Z,6.13
2019-04-16T05:54:46.035Z,6.10
2019-04-16T05:57:25.684Z,5.33
2019-04-16T05:59:53.038Z,6.93
2019-04-16T06:02:37.366Z,6.07
2019-04-16T06:05:08.118Z,6.20
2019-04-16T06:07:38.784Z,6.43
2019-04-16T06:10:10.411Z,6.37
2019-04-16T06:12:59.449Z,5.97
2019-04-16T06:15:54.286Z,6.33
2019-04-16T06:18:41.852Z,6.20
2019-04-16T06:21:26.837Z,6.53
2019-04-16T06:24:14.466Z,6.40
2019-04-16T06:27:08.776Z,6.43
2019-04-16T06:30:14.073Z,6.00
2019-04-16T06:32:48.593Z,6.27
2019-04-16T06:35:42.908Z,6.23
2019-04-16T06:38:13.163Z,6.23
2019-04-16T06:41:03.114Z,5.53
2019-04-16T06:43:35.718Z,6.60
2019-04-16T06:46:23.381Z,6.77
2019-04-16T06:49:10.966Z,6.43
2019-04-16T06:52:01.104Z,6.10
2019-04-16T06:54:48.745Z,6.17
2019-04-16T06:57:42.916Z,6.27
2019-04-16T07:00:34.067Z,6.17
2019-04-16T07:03:27.440Z,6.77
2019-04-16T07:06:19.624Z,6.60
2019-04-16T07:09:10.278Z,6.30
2019-04-16T07:11:53.665Z,7.17
2019-04-16T07:14:15.558Z,6.70
2019-04-16T07:16:45.089Z,6.83
2019-04-16T07:19:16.771Z,6.23
2019-04-16T07:21:49.739Z,6.47
2019-04-16T07:24:22.270Z,6.73
2019-04-16T07:26:50.482Z,7.10
2019-04-16T07:29:31.593Z,7.60
2019-04-16T07:32:20.578Z,6.23
2019-04-16T07:35:08.143Z,6.70
2019-04-16T07:37:55.873Z,6.50
2019-04-16T07:40:43.618Z,5.93
2019-04-16T07:43:30.942Z,7.10
2019-04-16T07:46:17.267Z,5.87
2019-04-16T07:48:55.647Z,6.17
2019-04-16T07:51:47.522Z,6.80
2019-04-16T07:54:27.104Z,6.50
2019-04-16T07:56:57.111Z,6.53
2019-04-16T07:59:32.013Z,6.17
2019-04-16T08:01:59.036Z,6.27
2019-04-16T08:04:29.492Z,7.17
2019-04-16T08:07:01.185Z,6.17
2019-04-16T08:09:33.687Z,6.80
2019-04-16T08:12:03.115Z,6.40
2019-04-16T08:14:33.201Z,6.43
2019-04-16T08:17:03.321Z,6.47
2019-04-16T08:19:37.207Z,6.60
2019-04-16T08:22:05.199Z,6.37
2019-04-16T08:24:38.372Z,6.70
2019-04-16T08:27:10.455Z,6.63
2019-04-16T08:29:40.384Z,6.77
2019-04-16T08:32:12.830Z,7.60
2019-04-16T08:34:42.660Z,7.17
2019-04-16T08:37:12.825Z,7.17
2019-04-16T08:39:43.022Z,6.43
2019-04-16T08:42:13.028Z,6.90
2019-04-16T08:44:43.034Z,7.67
2019-04-16T08:47:16.061Z,7.07
2019-04-16T08:49:46.295Z,7.07
2019-04-16T08:52:16.312Z,6.57
2019-04-16T08:54:50.056Z,6.93
2019-04-16T08:57:18.229Z,7.20
2019-04-16T08:59:49.321Z,7.27
2019-04-16T09:02:19.400Z,7.47
2019-04-16T09:04:49.569Z,7.10
2019-04-16T09:07:37.174Z,7.30
2019-04-16T09:10:17.457Z,7.47
2019-04-16T09:12:45.638Z,6.87
2019-04-16T09:15:21.900Z,7.70
2019-04-16T09:18:00.718Z,7.87
2019-04-16T09:20:37.920Z,7.73
2019-04-16T09:23:07.441Z,8.33
2019-04-16T09:25:46.730Z,7.83
2019-04-16T09:28:26.239Z,7.50
2019-04-16T09:31:12.480Z,7.63
2019-04-16T09:33:48.858Z,7.37
2019-04-16T09:36:47.703Z,7.63
2019-04-16T09:39:54.789Z,7.83
2019-04-16T09:42:24.896Z,7.47
2019-04-16T09:44:54.925Z,7.73
2019-04-16T09:47:24.920Z,8.50
2019-04-16T09:49:55.043Z,7.97
2019-04-16T09:52:25.198Z,8.80
2019-04-16T09:54:55.229Z,8.30
2019-04-16T09:57:25.411Z,8.17
2019-04-16T09:59:59.352Z,8.43
2019-04-16T10:02:32.635Z,8.40
2019-04-16T10:05:02.967Z,8.53
2019-04-16T10:07:33.054Z,8.30
2019-04-16T10:10:03.335Z,8.47
2019-04-16T10:12:33.543Z,8.47
2019-04-16T10:15:03.937Z,9.57
2019-04-16T10:17:34.014Z,8.60
2019-04-16T10:20:04.389Z,8.87
2019-04-16T10:22:34.482Z,8.57
2019-04-16T10:25:14.798Z,9.73
2019-04-16T10:28:07.178Z,8.70
2019-04-16T10:30:43.551Z,8.40
2019-04-16T10:33:13.673Z,9.00
2019-04-16T10:35:43.817Z,8.90
2019-04-16T10:38:26.428Z,10.67
2019-04-16T10:41:02.763Z,9.20
2019-04-16T10:43:50.180Z,9.13
2019-04-16T10:46:45.316Z,8.80
2019-04-16T10:49:20.731Z,9.13
2019-04-16T10:52:09.795Z,9.10
2019-04-16T10:55:04.901Z,9.27
2019-04-16T10:58:05.885Z,9.73
2019-04-16T11:00:42.678Z,9.23
2019-04-16T11:03:24.110Z,9.40
2019-04-16T11:06:00.312Z,10.57
2019-04-16T11:08:30.675Z,9.73
2019-04-16T11:11:00.714Z,10.28
2019-04-16T11:13:37.133Z,10.45
2019-04-16T11:16:15.553Z,10.20
2019-04-16T11:18:45.410Z,10.10
2019-04-16T11:21:16.025Z,11.13
2019-04-16T11:23:46.204Z,10.73
2019-04-16T11:26:16.292Z,9.83
2019-04-16T11:28:46.318Z,10.03
2019-04-16T11:31:18.770Z,10.73
2019-04-16T11:33:48.978Z,10.83
2019-04-16T11:36:20.897Z,11.03
2019-04-16T11:38:51.010Z,10.07
2019-04-16T11:41:21.261Z,10.00
2019-04-16T11:43:51.493Z,11.57
2019-04-16T11:46:22.061Z,9.98
2019-04-16T11:48:52.080Z,10.93
2019-04-16T11:51:22.293Z,11.10
2019-04-16T11:53:52.444Z,10.73
2019-04-16T11:56:22.860Z,10.15
2019-04-16T11:58:53.177Z,10.70
2019-04-16T12:01:47.329Z,12.75
2019-04-16T12:04:35.269Z,10.85
2019-04-16T12:07:24.447Z,11.33
2019-04-16T12:10:16.510Z,11.53
2019-04-16T12:12:57.304Z,11.73
2019-04-16T12:15:33.349Z,11.17
2019-04-16T12:18:07.037Z,11.57
2019-04-16T12:20:45.470Z,11.28
2019-04-16T12:23:36.838Z,10.80
2019-04-16T12:26:28.805Z,10.20
2019-04-16T12:29:04.736Z,12.60
2019-04-16T12:31:52.646Z,11.25
2019-04-16T12:34:33.833Z,11.08
2019-04-16T12:37:23.592Z,10.72
2019-04-16T12:40:18.581Z,11.83
2019-04-16T12:42:57.836Z,11.10
2019-04-16T12:45:33.897Z,11.35
2019-04-16T12:48:25.770Z,11.97
2019-04-16T12:51:03.531Z,10.63
2019-04-16T12:54:04.405Z,11.40
2019-04-16T12:57:02.573Z,11.38
2019-04-16T12:59:54.668Z,11.88
2019-04-16T13:02:46.349Z,11.08
2019-04-16T13:05:26.241Z,10.75
2019-04-16T13:08:15.298Z,11.80
2019-04-16T13:11:00.666Z,12.67
2019-04-16T13:13:54.368Z,12.25
2019-04-16T13:16:41.711Z,11.30
2019-04-16T13:19:36.370Z,11.50
2019-04-16T13:22:07.248Z,11.05
2019-04-16T13:25:02.218Z,11.17
2019-04-16T13:27:34.991Z,12.00
2019-04-16T13:30:07.053Z,11.65
2019-04-16T13:32:38.535Z,11.53
2019-04-16T13:35:08.997Z,12.28
2019-04-16T13:37:39.247Z,11.15
2019-04-16T13:40:14.801Z,12.68
2019-04-16T13:42:44.890Z,13.43
2019-04-16T13:45:35.102Z,12.68
2019-04-16T13:48:15.946Z,13.10
2019-04-16T13:50:48.297Z,12.20
2019-04-16T13:53:29.037Z,13.28
2019-04-16T13:56:19.869Z,13.53
2019-04-16T13:58:59.008Z,12.40
2019-04-16T14:01:33.722Z,12.82
2019-04-16T14:04:03.914Z,13.78
2019-04-16T14:06:34.047Z,11.45
2019-04-16T14:09:07.999Z,12.28
2019-04-16T14:11:38.283Z,12.10
2019-04-16T14:14:08.723Z,13.05
2019-04-16T14:16:40.937Z,14.40
2019-04-16T14:19:10.754Z,12.90
2019-04-16T14:21:40.931Z,12.23
2019-04-16T14:24:12.747Z,13.20
2019-04-16T14:26:43.023Z,12.68
2019-04-16T14:29:13.093Z,13.45
2019-04-16T14:31:46.144Z,13.58
2019-04-16T14:34:32.844Z,12.73
2019-04-16T14:37:03.123Z,12.53
2019-04-16T14:39:38.828Z,12.67
2019-04-16T14:42:09.031Z,13.68
2019-04-16T14:44:43.600Z,14.18
2019-04-16T14:47:13.611Z,14.55
2019-04-16T14:49:43.618Z,14.18
2019-04-16T14:52:13.722Z,12.98
2019-04-16T14:54:56.649Z,13.55
2019-04-16T14:57:26.756Z,13.68
2019-04-16T15:00:14.272Z,13.08
2019-04-16T15:03:10.054Z,13.72
2019-04-16T15:06:10.859Z,14.15
2019-04-16T15:09:06.672Z,13.70
2019-04-16T15:11:54.313Z,14.15
2019-04-16T15:14:28.750Z,13.18
2019-04-16T15:17:03.750Z,13.05
2019-04-16T15:19:46.600Z,14.98
2019-04-16T15:22:41.408Z,13.98
2019-04-16T15:25:24.899Z,12.80
2019-04-16T15:28:08.986Z,13.80
2019-04-16T15:31:03.794Z,13.48
2019-04-16T15:33:49.822Z,13.30
2019-04-16T15:36:32.212Z,13.22
2019-04-16T15:39:14.684Z,12.90
2019-04-16T15:42:21.678Z,12.40
2019-04-16T15:45:02.134Z,13.18
2019-04-16T15:47:49.684Z,13.62
2019-04-16T15:50:38.839Z,12.73
2019-04-16T15:53:22.086Z,12.78
2019-04-16T15:56:11.558Z,12.90
2019-04-16T15:58:49.762Z,13.62
2019-04-16T16:01:37.292Z,12.05
2019-04-16T16:04:38.468Z,12.80
2019-04-16T16:07:11.086Z,13.75
2019-04-16T16:09:59.788Z,12.60
2019-04-16T16:12:31.612Z,13.45
2019-04-16T16:15:01.794Z,14.20
2019-04-16T16:17:31.850Z,14.33
2019-04-16T16:20:02.202Z,12.73
2019-04-16T16:22:32.255Z,13.62
2019-04-16T16:25:05.442Z,13.80
2019-04-16T16:27:34.166Z,12.88
2019-04-16T16:30:04.950Z,12.60
2019-04-16T16:32:35.115Z,11.65
2019-04-16T16:35:05.737Z,13.32
2019-04-16T16:37:36.900Z,12.55
2019-04-16T16:40:08.033Z,11.80
2019-04-16T16:42:38.187Z,11.80
2019-04-16T16:45:08.505Z,12.13
2019-04-16T16:47:40.290Z,13.50
2019-04-16T16:50:15.821Z,11.50
2019-04-16T16:53:03.126Z,12.68
2019-04-16T16:55:53.386Z,10.93
2019-04-16T16:58:42.506Z,10.98
2019-04-16T17:01:34.723Z,12.53
2019-04-16T17:04:34.499Z,11.40
2019-04-16T17:07:05.120Z,11.40
2019-04-16T17:09:35.387Z,11.93
2019-04-16T17:12:05.761Z,11.88
2019-04-16T17:14:37.759Z,11.75
2019-04-16T17:17:14.166Z,11.87
2019-04-16T17:19:39.981Z,11.70
2019-04-16T17:22:10.174Z,11.05
2019-04-16T17:24:40.500Z,11.78
2019-04-16T17:27:10.614Z,12.10
2019-04-16T17:29:40.733Z,12.07
2019-04-16T17:32:10.992Z,11.20
2019-04-16T17:34:41.187Z,11.85
2019-04-16T17:37:11.388Z,11.30
2019-04-16T17:39:55.864Z,11.53
2019-04-16T17:42:31.274Z,11.33
2019-04-16T17:45:40.042Z,11.97
2019-04-16T17:48:29.086Z,11.47
2019-04-16T17:51:07.436Z,11.53
2019-04-16T17:53:49.482Z,11.20
2019-04-16T17:56:46.740Z,12.10
2019-04-16T17:59:29.232Z,10.53
2019-04-16T18:02:25.023Z,11.43
2019-04-16T18:05:06.403Z,11.13
2019-04-16T18:07:55.539Z,10.68
2019-04-16T18:10:40.650Z,11.43
2019-04-16T18:13:33.058Z,11.27
2019-04-16T18:16:24.971Z,11.80
2019-04-16T18:19:04.707Z,10.63
2019-04-16T18:22:04.399Z,11.80
2019-04-16T18:24:52.447Z,12.13
2019-04-16T18:27:36.523Z,12.10
2019-04-16T18:30:29.194Z,11.00
2019-04-16T18:33:27.134Z,11.63
2019-04-16T18:36:16.959Z,12.10
2019-04-16T18:39:19.024Z,12.77
2019-04-16T18:42:13.962Z,11.83
2019-04-16T18:44:51.381Z,11.50
2019-04-16T18:48:01.088Z,12.60
2019-04-16T18:50:27.917Z,11.53
2019-04-16T18:52:55.739Z,11.87
2019-04-16T18:55:27.134Z,12.27
2019-04-16T18:57:57.197Z,12.03
2019-04-16T19:00:33.658Z,12.50
2019-04-16T19:03:04.164Z,12.00
2019-04-16T19:05:34.427Z,12.27
2019-04-16T19:08:05.722Z,12.90
2019-04-16T19:10:36.557Z,12.58
2019-04-16T19:13:11.340Z,12.90
2019-04-16T19:15:38.799Z,12.03
2019-04-16T19:18:19.176Z,12.10
2019-04-16T19:20:40.897Z,12.27
2019-04-16T19:23:10.853Z,12.60
2019-04-16T19:25:40.897Z,13.13
2019-04-16T19:28:11.072Z,12.43
2019-04-16T19:30:41.178Z,12.57
2019-04-16T19:33:11.337Z,12.60
2019-04-16T19:35:41.524Z,12.10
2019-04-16T19:38:11.644Z,11.03
2019-04-16T19:40:42.058Z,11.60
2019-04-16T19:43:12.162Z,12.27
2019-04-16T19:45:43.645Z,12.03
2019-04-16T19:48:17.758Z,11.87
2019-04-16T19:50:46.156Z,12.43
2019-04-16T19:53:16.502Z,12.07
2019-04-16T19:55:46.708Z,12.03
2019-04-16T19:58:17.048Z,11.70
2019-04-16T20:00:47.278Z,12.43
2019-04-16T20:03:17.636Z,12.53
2019-04-16T20:05:47.931Z,12.20
2019-04-16T20:08:18.022Z,11.47
2019-04-16T20:10:48.976Z,12.27
2019-04-16T20:13:19.036Z,13.43
2019-04-16T20:15:49.157Z,13.03
2019-04-16T20:18:22.164Z,11.60
2019-04-16T20:20:52.217Z,13.37
2019-04-16T20:23:22.325Z,11.63
2019-04-16T20:25:56.331Z,11.33
2019-04-16T20:28:26.083Z,11.53
2019-04-16T20:31:01.407Z,12.00
2019-04-16T20:33:28.011Z,11.33
2019-04-16T20:35:58.190Z,12.43
2019-04-16T20:38:29.329Z,11.43
2019-04-16T20:41:00.223Z,13.07
2019-04-16T20:43:30.270Z,12.77
2019-04-16T20:46:00.582Z,11.97
2019-04-16T20:48:30.597Z,11.57
2019-04-16T20:51:00.587Z,11.93
2019-04-16T20:53:30.672Z,12.23
2019-04-16T20:56:00.875Z,12.13
2019-04-16T20:58:32.023Z,12.53
2019-04-16T21:01:02.883Z,12.70
2019-04-16T21:03:32.962Z,12.30
2019-04-16T21:06:07.161Z,12.97
2019-04-16T21:08:35.368Z,13.57
2019-04-16T21:11:08.815Z,12.37
2019-04-16T21:13:37.218Z,12.70
2019-04-16T21:16:07.429Z,13.90
2019-04-16T21:18:37.504Z,13.17
2019-04-16T21:21:07.679Z,13.47
2019-04-16T21:23:37.774Z,12.07
2019-04-16T21:26:08.032Z,13.20
2019-04-16T21:28:47.065Z,12.90
2019-04-16T21:31:22.231Z,11.70
2019-04-16T21:34:24.549Z,12.50
2019-04-16T21:37:31.740Z,10.87
2019-04-16T21:40:03.249Z,10.97
2019-04-16T21:42:34.962Z,10.80
2019-04-16T21:45:06.489Z,11.83
2019-04-16T21:47:38.689Z,12.20
2019-04-16T21:50:08.975Z,12.03
2019-04-16T21:52:39.152Z,11.93
2019-04-16T21:55:10.168Z,13.23
2019-04-16T21:57:42.900Z,12.53
2019-04-16T22:00:33.010Z,12.50
2019-04-16T22:03:09.156Z,12.47
2019-04-16T22:05:36.912Z,12.47
2019-04-16T22:08:07.035Z,12.57
2019-04-16T22:10:37.198Z,11.67
2019-04-16T22:13:07.310Z,9.80
2019-04-16T22:15:37.464Z,9.97
2019-04-16T22:18:09.777Z,11.07
2019-04-16T22:20:39.568Z,11.80
2019-04-16T22:23:09.738Z,9.67
2019-04-16T22:25:39.892Z,14.30
2019-04-16T22:28:12.817Z,11.77
2019-04-16T22:30:41.882Z,11.40
2019-04-16T22:33:11.975Z,10.53
2019-04-16T22:35:42.068Z,11.33
2019-04-16T22:38:14.314Z,11.60
2019-04-16T22:40:56.553Z,11.77
2019-04-16T22:43:54.828Z,11.47
2019-04-16T22:46:29.078Z,12.00
2019-04-16T22:48:59.663Z,12.43
2019-04-16T22:51:29.869Z,13.50
2019-04-16T22:53:59.976Z,13.50
2019-04-16T22:56:36.189Z,13.97
2019-04-16T22:59:07.750Z,15.10
2019-04-16T23:01:41.717Z,13.10
2019-04-16T23:04:10.823Z,13.23
2019-04-16T23:06:40.790Z,13.87
2019-04-16T23:09:16.713Z,12.00
2019-04-16T23:11:42.643Z,13.03
2019-04-16T23:14:12.733Z,12.63
2019-04-16T23:16:43.057Z,12.80
2019-04-16T23:19:13.318Z,13.33
2019-04-16T23:21:43.367Z,12.77
2019-04-16T23:24:13.438Z,13.40
2019-04-16T23:26:43.545Z,12.67
2019-04-16T23:29:15.635Z,12.97
2019-04-16T23:31:45.426Z,14.67
2019-04-16T23:34:15.440Z,13.57
2019-04-16T23:36:48.765Z,13.73
2019-04-16T23:39:17.286Z,13.57
2019-04-16T23:41:48.189Z,14.53
2019-04-16T23:44:44.031Z,13.67
2019-04-16T23:47:45.002Z,13.37
2019-04-16T23:50:44.262Z,13.93
2019-04-16T23:53:17.509Z,13.27
2019-04-16T23:56:12.376Z,14.10
2019-04-16T23:58:47.950Z,13.10
